Houston, Delaware
Current Conditions -  °F | °C
As of 7:58 AM on Friday 28 Nov 2014 (Local Time) from KDOV Reporting Station
Clear Clear  
Wind Chill: 24°   Ceiling: Unl
Heat Index: 32°   Visibility: 10mi
Dew Point: 25°   Wind: 9mph
Humidity: 74%   Direction: 270°W
Pressure: 30.22"   Gusts: NA
Location:  38.92°N, 75.51°W
Report Text: KDOV 281258Z AUTO 27008KT 10SM CLR 00/M04 A3022 RMK AO2 SLP237 T00011041
Loading
Personal Weather Stations






























Interactive Weather Map New forecast layout! Learn more

10-Day Weather Forecast

Advertisements
Track Severe Weather on mobile